createdAt,value
2023-05-19T00:00:57.728Z,5.80
2023-05-19T00:03:24.825Z,6.78
2023-05-19T00:05:53.906Z,6.47
2023-05-19T00:08:21.326Z,8.05
2023-05-19T00:10:48.004Z,6.13
2023-05-19T00:13:14.587Z,8.02
2023-05-19T00:15:41.443Z,8.23
2023-05-19T00:18:08.910Z,6.07
2023-05-19T00:20:35.522Z,7.10
2023-05-19T00:23:01.981Z,7.68
2023-05-19T00:25:28.446Z,4.75
2023-05-19T00:27:54.817Z,7.03
2023-05-19T00:30:22.878Z,6.15
2023-05-19T00:32:49.351Z,5.55
2023-05-19T00:35:16.789Z,6.68
2023-05-19T00:37:43.190Z,5.55
2023-05-19T00:40:10.759Z,5.97
2023-05-19T00:42:37.265Z,3.78
2023-05-19T00:45:04.060Z,5.00
2023-05-19T00:47:30.958Z,5.55
2023-05-19T00:49:57.408Z,7.57
2023-05-19T00:52:23.885Z,5.78
2023-05-19T00:54:51.747Z,4.60
2023-05-19T00:57:18.244Z,8.43
2023-05-19T00:59:44.968Z,3.78
2023-05-19T01:02:11.390Z,6.22
2023-05-19T01:04:41.774Z,5.63
2023-05-19T01:09:34.742Z,3.95
2023-05-19T01:12:01.786Z,6.28
2023-05-19T01:14:29.630Z,4.13
2023-05-19T01:17:08.076Z,6.00
2023-05-19T01:19:56.425Z,4.65
2023-05-19T01:25:25.960Z,4.88
2023-05-19T01:28:10.476Z,5.05
2023-05-19T01:30:39.821Z,5.32
2023-05-19T01:33:08.956Z,4.97
2023-05-19T01:35:37.354Z,2.92
2023-05-19T01:38:07.572Z,4.78
2023-05-19T01:40:35.037Z,6.38
2023-05-19T01:43:02.183Z,5.00
2023-05-19T01:45:31.081Z,4.85
2023-05-19T01:48:00.804Z,3.97
2023-05-19T01:50:28.154Z,4.25
2023-05-19T01:52:54.664Z,4.30
2023-05-19T01:55:23.700Z,3.95
2023-05-19T01:58:21.246Z,5.80
2023-05-19T02:00:57.183Z,4.35
2023-05-19T02:03:32.787Z,5.85
2023-05-19T02:06:32.739Z,4.00
2023-05-19T02:09:13.274Z,4.10
2023-05-19T02:12:02.978Z,5.95
2023-05-19T02:14:41.886Z,3.35
2023-05-19T02:17:08.784Z,4.50
2023-05-19T02:19:39.111Z,5.82
2023-05-19T02:22:06.232Z,5.65
2023-05-19T02:24:32.781Z,2.90
2023-05-19T02:26:59.549Z,4.38
2023-05-19T02:29:26.175Z,6.45
2023-05-19T02:31:52.597Z,4.75
2023-05-19T02:34:19.047Z,5.45
2023-05-19T02:36:45.434Z,5.57
2023-05-19T02:39:12.220Z,4.03
2023-05-19T02:41:39.142Z,4.82
2023-05-19T02:44:05.723Z,3.30
2023-05-19T02:46:32.210Z,3.33
2023-05-19T02:48:58.656Z,5.10
2023-05-19T02:51:25.122Z,3.97
2023-05-19T02:53:51.603Z,4.50
2023-05-19T02:56:18.083Z,4.22
2023-05-19T02:58:44.590Z,5.07
2023-05-19T03:01:11.130Z,3.83
2023-05-19T03:03:37.587Z,3.50
2023-05-19T03:06:04.885Z,3.03
2023-05-19T03:08:31.328Z,5.40
2023-05-19T03:10:57.722Z,4.75
2023-05-19T03:13:24.143Z,4.05
2023-05-19T03:15:51.120Z,3.80
2023-05-19T03:18:17.781Z,3.53
2023-05-19T03:20:44.666Z,5.97
2023-05-19T03:23:11.155Z,4.15
2023-05-19T03:25:37.588Z,3.28
2023-05-19T03:28:04.072Z,2.65
2023-05-19T03:30:30.753Z,2.95
2023-05-19T03:32:57.369Z,4.80
2023-05-19T03:35:23.813Z,3.45
2023-05-19T03:37:50.458Z,2.83
2023-05-19T03:40:18.747Z,3.08
2023-05-19T03:42:45.277Z,3.67
2023-05-19T03:45:11.759Z,2.67
2023-05-19T03:47:38.228Z,4.28
2023-05-19T03:50:05.131Z,4.43
2023-05-19T03:52:31.544Z,2.67
2023-05-19T03:54:58.684Z,2.67
2023-05-19T03:57:25.196Z,2.63
2023-05-19T03:59:51.727Z,3.90
2023-05-19T04:02:18.161Z,3.90
2023-05-19T04:04:44.813Z,2.20
2023-05-19T04:07:11.718Z,2.80
2023-05-19T04:09:39.003Z,2.88
2023-05-19T04:12:05.925Z,4.13
2023-05-19T04:14:32.354Z,5.47
2023-05-19T04:16:58.991Z,2.70
2023-05-19T04:19:25.613Z,3.45
2023-05-19T04:21:52.087Z,4.50
2023-05-19T04:24:18.498Z,2.67
2023-05-19T04:26:47.025Z,4.18
2023-05-19T04:29:17.821Z,2.60
2023-05-19T04:31:47.488Z,3.60
2023-05-19T04:34:13.955Z,2.25
2023-05-19T04:36:40.504Z,3.40
2023-05-19T04:39:09.499Z,4.95
2023-05-19T04:41:35.953Z,2.25
2023-05-19T04:44:02.343Z,3.03
2023-05-19T04:46:30.031Z,2.20
2023-05-19T04:48:57.157Z,3.03
2023-05-19T04:51:29.808Z,3.60
2023-05-19T04:53:57.610Z,2.03
2023-05-19T04:56:24.129Z,4.00
2023-05-19T04:58:50.753Z,3.78
2023-05-19T05:01:17.158Z,2.03
2023-05-19T05:03:43.718Z,2.70
2023-05-19T05:06:11.348Z,3.38
2023-05-19T05:08:40.127Z,3.88
2023-05-19T05:11:06.912Z,3.45
2023-05-19T05:13:33.800Z,2.25
2023-05-19T05:16:00.563Z,3.42
2023-05-19T05:18:27.291Z,5.18
2023-05-19T05:20:54.176Z,2.60
2023-05-19T05:23:20.887Z,2.90
2023-05-19T05:25:47.668Z,4.05
2023-05-19T05:28:14.275Z,3.47
2023-05-19T05:30:41.477Z,2.58
2023-05-19T05:33:08.106Z,3.67
2023-05-19T05:35:34.777Z,2.13
2023-05-19T05:38:02.219Z,2.55
2023-05-19T05:40:28.997Z,4.32
2023-05-19T05:42:56.823Z,3.08
2023-05-19T05:45:23.489Z,3.95
2023-05-19T05:47:50.526Z,3.67
2023-05-19T05:50:17.759Z,2.50
2023-05-19T05:52:47.818Z,3.65
2023-05-19T05:55:17.349Z,2.85
2023-05-19T05:57:43.809Z,2.17
2023-05-19T06:00:15.378Z,2.22
2023-05-19T06:02:46.472Z,3.42
2023-05-19T06:05:14.016Z,2.65
2023-05-19T06:07:41.307Z,2.35
2023-05-19T06:10:09.914Z,3.10
2023-05-19T06:12:40.568Z,2.85
2023-05-19T06:15:08.067Z,5.65
2023-05-19T06:17:36.073Z,3.88
2023-05-19T06:20:05.544Z,4.43
2023-05-19T06:22:32.259Z,3.33
2023-05-19T06:24:58.721Z,3.38
2023-05-19T06:27:25.539Z,3.72
2023-05-19T06:29:52.307Z,2.03
2023-05-19T06:32:18.701Z,3.03
2023-05-19T06:34:45.114Z,2.03
2023-05-19T06:37:11.824Z,3.78
2023-05-19T06:39:38.476Z,3.42
2023-05-19T06:42:05.077Z,2.90
2023-05-19T06:44:31.524Z,3.42
2023-05-19T06:46:58.051Z,3.28
2023-05-19T06:49:24.594Z,3.03
2023-05-19T06:51:51.008Z,3.30
2023-05-19T06:54:17.593Z,2.35
2023-05-19T06:56:44.005Z,2.67
2023-05-19T06:59:10.836Z,4.82
2023-05-19T07:01:37.826Z,3.38
2023-05-19T07:04:04.585Z,3.33
2023-05-19T07:06:31.260Z,2.13
2023-05-19T07:08:57.677Z,4.53
2023-05-19T07:11:24.583Z,3.63
2023-05-19T07:13:51.005Z,2.00
2023-05-19T07:16:17.436Z,3.00
2023-05-19T07:18:43.994Z,3.53
2023-05-19T07:21:10.616Z,3.85
2023-05-19T07:23:37.031Z,4.28
2023-05-19T07:26:03.561Z,4.90
2023-05-19T07:28:30.086Z,3.45
2023-05-19T07:30:56.484Z,4.45
2023-05-19T07:33:23.065Z,3.55
2023-05-19T07:35:49.547Z,3.38
2023-05-19T07:38:16.153Z,3.78
2023-05-19T07:40:42.527Z,3.72
2023-05-19T07:43:09.028Z,1.88
2023-05-19T07:45:35.471Z,5.75
2023-05-19T07:48:01.941Z,2.97
2023-05-19T07:50:28.383Z,2.53
2023-05-19T07:52:55.061Z,3.55
2023-05-19T07:55:23.085Z,3.10
2023-05-19T07:57:50.903Z,4.05
2023-05-19T08:00:17.752Z,20.45
2023-05-19T08:02:45.052Z,12.70
2023-05-19T08:05:11.580Z,27.73
2023-05-19T08:07:38.163Z,32.50
2023-05-19T08:10:04.987Z,35.13
2023-05-19T08:12:31.428Z,37.20
2023-05-19T08:14:58.939Z,42.67
2023-05-19T08:17:27.617Z,38.83
2023-05-19T08:19:54.042Z,40.55
2023-05-19T08:22:20.749Z,37.00
2023-05-19T08:24:49.633Z,35.20
2023-05-19T08:27:16.688Z,44.50
2023-05-19T08:29:43.429Z,30.10
2023-05-19T08:32:12.412Z,32.80
2023-05-19T08:34:39.730Z,37.88
2023-05-19T08:37:06.919Z,35.85
2023-05-19T08:39:34.726Z,26.85
2023-05-19T08:42:01.558Z,35.38
2023-05-19T08:44:28.361Z,29.35
2023-05-19T08:46:56.140Z,35.60
2023-05-19T08:49:26.723Z,27.65
2023-05-19T08:54:46.858Z,32.30
2023-05-19T08:57:14.093Z,25.50
2023-05-19T08:59:41.497Z,26.63
2023-05-19T09:02:11.382Z,28.10
2023-05-19T09:04:39.672Z,20.00
2023-05-19T09:07:06.128Z,24.05
2023-05-19T09:09:32.637Z,19.73
2023-05-19T09:11:59.076Z,25.55
2023-05-19T09:14:25.908Z,21.05
2023-05-19T09:16:53.003Z,26.17
2023-05-19T09:19:20.819Z,21.90
2023-05-19T09:22:00.073Z,22.45
2023-05-19T09:24:27.157Z,18.85
2023-05-19T09:26:57.996Z,20.52
2023-05-19T09:29:26.353Z,18.60
2023-05-19T09:31:55.976Z,21.13
2023-05-19T09:34:24.712Z,13.65
2023-05-19T09:36:53.150Z,17.55
2023-05-19T09:39:21.987Z,16.80
2023-05-19T09:41:54.115Z,13.95
2023-05-19T09:44:20.992Z,15.52
2023-05-19T09:46:48.704Z,19.20
2023-05-19T09:49:22.264Z,15.65
2023-05-19T09:51:57.901Z,23.30
2023-05-19T09:54:25.470Z,15.05
2023-05-19T09:57:04.843Z,21.45
2023-05-19T09:59:33.739Z,13.52
2023-05-19T10:02:02.095Z,17.80
2023-05-19T10:04:30.238Z,14.77
2023-05-19T10:06:59.840Z,12.15
2023-05-19T10:09:28.180Z,13.10
2023-05-19T10:11:56.247Z,16.95
2023-05-19T10:14:24.587Z,19.15
2023-05-19T10:16:52.742Z,16.77
2023-05-19T10:19:23.796Z,13.25
2023-05-19T10:21:51.022Z,16.88
2023-05-19T10:24:18.177Z,12.50
2023-05-19T10:26:49.570Z,16.08
2023-05-19T10:29:21.609Z,18.35
2023-05-19T10:31:51.667Z,12.05
2023-05-19T10:34:57.124Z,10.10
2023-05-19T10:37:45.508Z,15.07
2023-05-19T10:40:25.398Z,11.50
2023-05-19T10:43:04.806Z,12.00
2023-05-19T10:45:36.506Z,12.23
2023-05-19T10:48:03.168Z,13.35
2023-05-19T10:50:37.277Z,13.98
2023-05-19T10:53:03.758Z,14.93
2023-05-19T10:55:50.381Z,10.93
2023-05-19T10:58:36.408Z,9.38
2023-05-19T11:01:06.928Z,13.98
2023-05-19T11:06:32.993Z,10.20
2023-05-19T11:09:13.535Z,9.82
2023-05-19T11:11:53.910Z,11.13
2023-05-19T11:14:23.041Z,10.45
2023-05-19T11:16:51.679Z,13.45
2023-05-19T11:19:29.124Z,11.00
2023-05-19T11:21:57.334Z,7.85
2023-05-19T11:24:36.599Z,7.85
2023-05-19T11:27:24.334Z,9.48
2023-05-19T11:29:51.701Z,10.82
2023-05-19T11:32:18.686Z,7.55
2023-05-19T11:34:45.847Z,10.30
2023-05-19T11:37:12.317Z,9.10
2023-05-19T11:39:39.780Z,10.27
2023-05-19T11:42:06.769Z,8.57
2023-05-19T11:44:33.164Z,13.52
2023-05-19T11:47:00.158Z,10.63
2023-05-19T11:49:29.501Z,7.10
2023-05-19T11:51:56.411Z,9.70
2023-05-19T11:54:30.532Z,8.88
2023-05-19T11:56:57.741Z,8.10
2023-05-19T11:59:36.268Z,10.63
2023-05-19T12:02:17.237Z,7.13
2023-05-19T12:04:43.832Z,8.10
2023-05-19T12:07:14.589Z,8.38
2023-05-19T12:09:41.056Z,10.10
2023-05-19T12:12:07.728Z,7.22
2023-05-19T12:14:34.481Z,10.30
2023-05-19T12:17:10.470Z,7.43
2023-05-19T12:19:37.360Z,5.18
2023-05-19T12:22:05.054Z,10.98
2023-05-19T12:24:33.824Z,8.25
2023-05-19T12:27:20.694Z,8.73
2023-05-19T12:29:52.273Z,7.90
2023-05-19T12:32:19.659Z,6.03
2023-05-19T12:34:46.103Z,6.45
2023-05-19T12:37:12.552Z,8.20
2023-05-19T12:39:39.774Z,8.15
2023-05-19T12:42:10.703Z,5.80
2023-05-19T12:44:49.743Z,6.78
2023-05-19T12:47:16.998Z,5.22
2023-05-19T12:49:56.896Z,6.05
2023-05-19T12:52:23.771Z,5.43
2023-05-19T12:54:52.301Z,8.32
2023-05-19T12:57:20.963Z,7.85
2023-05-19T12:59:48.190Z,7.15
2023-05-19T13:02:15.055Z,6.50
2023-05-19T13:04:41.577Z,5.13
2023-05-19T13:07:08.052Z,6.30
2023-05-19T13:09:36.320Z,5.93
2023-05-19T13:12:02.834Z,4.25
2023-05-19T13:14:29.264Z,7.22
2023-05-19T13:16:55.740Z,5.22
2023-05-19T13:19:25.687Z,6.30
2023-05-19T13:24:18.992Z,5.15
2023-05-19T13:26:45.487Z,6.20
2023-05-19T13:29:11.994Z,5.47
2023-05-19T13:31:38.567Z,6.13
2023-05-19T13:34:05.201Z,4.75
2023-05-19T13:36:33.317Z,3.25
2023-05-19T13:39:00.707Z,4.63
2023-05-19T13:41:29.304Z,4.70
2023-05-19T13:44:01.463Z,3.63
2023-05-19T13:46:40.728Z,3.38
2023-05-19T13:49:10.892Z,3.83
2023-05-19T13:51:37.583Z,5.43
2023-05-19T13:54:04.931Z,6.78
2023-05-19T13:56:31.759Z,4.88
2023-05-19T13:58:58.226Z,6.22
2023-05-19T14:01:24.722Z,4.57
2023-05-19T14:03:51.532Z,4.13
2023-05-19T14:06:18.125Z,5.80
2023-05-19T14:08:45.303Z,4.85
2023-05-19T14:11:19.591Z,4.32
2023-05-19T14:13:46.858Z,4.97
2023-05-19T14:16:13.376Z,4.65
2023-05-19T14:18:39.850Z,3.83
2023-05-19T14:21:06.276Z,4.47
2023-05-19T14:23:32.675Z,6.07
2023-05-19T14:25:59.207Z,4.05
2023-05-19T14:28:26.159Z,3.50
2023-05-19T14:30:52.740Z,4.57
2023-05-19T14:33:21.080Z,4.72
2023-05-19T14:35:47.502Z,4.43
2023-05-19T14:38:14.027Z,5.30
2023-05-19T14:40:41.410Z,5.57
2023-05-19T14:43:08.008Z,4.00
2023-05-19T14:45:35.322Z,4.18
2023-05-19T14:48:02.033Z,6.53
2023-05-19T14:50:29.292Z,4.15
2023-05-19T14:52:56.720Z,4.97
2023-05-19T14:55:23.159Z,4.00
2023-05-19T14:57:50.194Z,5.55
2023-05-19T15:00:17.883Z,3.67
2023-05-19T15:02:44.571Z,2.30
2023-05-19T15:05:11.742Z,2.80
2023-05-19T15:07:38.258Z,3.85
2023-05-19T15:10:05.003Z,3.90
2023-05-19T15:12:31.480Z,4.28
2023-05-19T15:14:58.100Z,2.92
2023-05-19T15:17:24.722Z,2.42
2023-05-19T15:19:51.220Z,4.25
2023-05-19T15:22:17.681Z,3.95
2023-05-19T15:24:44.181Z,3.50
2023-05-19T15:27:10.813Z,3.38
2023-05-19T15:29:37.180Z,3.80
2023-05-19T15:32:03.765Z,3.50
2023-05-19T15:34:30.138Z,3.33
2023-05-19T15:36:56.546Z,3.20
2023-05-19T15:39:23.048Z,5.07
2023-05-19T15:41:52.489Z,4.70
2023-05-19T15:44:18.886Z,3.53
2023-05-19T15:46:45.421Z,2.50
2023-05-19T15:49:12.759Z,3.67
2023-05-19T15:51:39.709Z,3.30
2023-05-19T15:54:06.217Z,2.65
2023-05-19T15:56:32.596Z,2.10
2023-05-19T15:58:59.053Z,3.13
2023-05-19T16:01:26.332Z,3.90
2023-05-19T16:03:53.043Z,2.65
2023-05-19T16:06:20.750Z,4.85
2023-05-19T16:08:47.185Z,3.78
2023-05-19T16:11:14.418Z,3.72
2023-05-19T16:13:40.861Z,5.28
2023-05-19T16:16:07.517Z,3.42
2023-05-19T16:18:34.029Z,3.53
2023-05-19T16:21:00.413Z,2.13
2023-05-19T16:23:27.480Z,4.95
2023-05-19T16:25:54.681Z,5.65
2023-05-19T16:28:22.505Z,10.18
2023-05-19T16:30:50.920Z,12.48
2023-05-19T16:33:17.388Z,13.68
2023-05-19T16:35:44.039Z,10.00
2023-05-19T16:38:10.519Z,17.05
2023-05-19T16:40:37.167Z,11.50
2023-05-19T16:43:03.760Z,10.52
2023-05-19T16:45:30.338Z,12.43
2023-05-19T16:47:56.918Z,14.48
2023-05-19T16:50:23.381Z,14.85
2023-05-19T16:52:49.846Z,12.32
2023-05-19T16:55:19.665Z,12.70
2023-05-19T16:57:46.756Z,14.02
2023-05-19T17:00:14.084Z,11.77
2023-05-19T17:02:40.629Z,11.27
2023-05-19T17:05:07.515Z,10.73
2023-05-19T17:07:33.910Z,9.25
2023-05-19T17:10:00.317Z,14.13
2023-05-19T17:12:26.764Z,9.98
2023-05-19T17:14:53.242Z,10.18
2023-05-19T17:17:19.670Z,16.45
2023-05-19T17:19:46.718Z,9.95
2023-05-19T17:22:13.093Z,9.57
2023-05-19T17:24:39.515Z,11.73
2023-05-19T17:27:06.083Z,10.93
2023-05-19T17:29:32.535Z,9.40
2023-05-19T17:31:59.037Z,7.85
2023-05-19T17:34:25.464Z,10.30
2023-05-19T17:36:51.879Z,8.02
2023-05-19T17:39:20.146Z,8.95
2023-05-19T17:41:46.630Z,12.20
2023-05-19T17:44:13.065Z,13.30
2023-05-19T17:46:39.593Z,7.88
2023-05-19T17:49:06.461Z,8.80
2023-05-19T17:51:33.177Z,12.90
2023-05-19T17:53:59.913Z,7.00
2023-05-19T17:56:27.827Z,8.60
2023-05-19T17:58:54.502Z,9.00
2023-05-19T18:01:23.993Z,9.48
2023-05-19T18:03:50.688Z,9.23
2023-05-19T18:06:18.269Z,9.25
2023-05-19T18:08:50.765Z,8.80
2023-05-19T18:11:19.024Z,9.65
2023-05-19T18:13:45.653Z,9.23
2023-05-19T18:16:12.444Z,7.95
2023-05-19T18:18:41.160Z,8.60
2023-05-19T18:21:07.649Z,6.85
2023-05-19T18:23:34.079Z,8.05
2023-05-19T18:26:00.558Z,10.50
2023-05-19T18:28:27.015Z,7.45
2023-05-19T18:31:00.582Z,8.10
2023-05-19T18:33:28.741Z,5.45
2023-05-19T18:35:57.973Z,10.80
2023-05-19T18:38:24.506Z,11.98
2023-05-19T18:40:51.351Z,8.88
2023-05-19T18:43:18.550Z,10.18
2023-05-19T18:45:47.963Z,10.55
2023-05-19T18:48:15.388Z,7.05
2023-05-19T18:50:44.048Z,8.48
2023-05-19T18:53:11.668Z,6.25
2023-05-19T18:55:38.624Z,6.88
2023-05-19T18:58:06.152Z,7.70
2023-05-19T19:00:33.186Z,8.93
2023-05-19T19:03:00.091Z,8.68
2023-05-19T19:05:26.585Z,9.32
2023-05-19T19:07:53.266Z,12.13
2023-05-19T19:10:19.918Z,6.28
2023-05-19T19:12:46.601Z,6.97
2023-05-19T19:15:13.131Z,10.13
2023-05-19T19:17:42.573Z,4.68
2023-05-19T19:20:09.630Z,5.80
2023-05-19T19:22:36.292Z,8.90
2023-05-19T19:25:02.724Z,8.95
2023-05-19T19:27:31.256Z,6.13
2023-05-19T19:29:58.626Z,6.75
2023-05-19T19:32:25.631Z,6.13
2023-05-19T19:34:55.195Z,7.68
2023-05-19T19:37:21.625Z,4.97
2023-05-19T19:39:48.115Z,6.82
2023-05-19T19:42:14.592Z,7.68
2023-05-19T19:44:40.999Z,6.75
2023-05-19T19:47:07.605Z,7.18
2023-05-19T19:49:34.008Z,5.53
2023-05-19T19:52:00.504Z,7.15
2023-05-19T19:54:26.968Z,6.88
2023-05-19T19:56:53.441Z,6.25
2023-05-19T19:59:19.921Z,6.32
2023-05-19T20:01:46.464Z,6.50
2023-05-19T20:04:13.172Z,5.72
2023-05-19T20:06:39.846Z,5.93
2023-05-19T20:09:06.756Z,4.35
2023-05-19T20:11:33.153Z,6.15
2023-05-19T20:13:59.592Z,6.70
2023-05-19T20:16:26.410Z,6.53
2023-05-19T20:18:52.908Z,6.22
2023-05-19T20:21:19.337Z,3.47
2023-05-19T20:23:46.180Z,4.95
2023-05-19T20:26:13.603Z,5.30
2023-05-19T20:28:40.414Z,6.03
2023-05-19T20:31:07.284Z,4.88
2023-05-19T20:33:33.840Z,6.50
2023-05-19T20:36:00.304Z,5.15
2023-05-19T20:38:27.051Z,6.57
2023-05-19T20:40:54.306Z,5.40
2023-05-19T20:43:21.211Z,6.70
2023-05-19T20:45:47.834Z,6.45
2023-05-19T20:48:15.877Z,3.58
2023-05-19T20:50:42.427Z,4.70
2023-05-19T20:53:08.834Z,5.68
2023-05-19T20:55:36.518Z,3.55
2023-05-19T20:58:03.064Z,3.78
2023-05-19T21:00:30.582Z,6.22
2023-05-19T21:02:57.461Z,5.22
2023-05-19T21:05:24.171Z,4.40
2023-05-19T21:07:50.596Z,3.90
2023-05-19T21:10:17.930Z,4.00
2023-05-19T21:12:44.471Z,4.57
2023-05-19T21:15:11.429Z,5.10
2023-05-19T21:17:37.966Z,2.40
2023-05-19T21:20:05.077Z,4.88
2023-05-19T21:22:31.533Z,4.30
2023-05-19T21:24:57.987Z,4.25
2023-05-19T21:27:24.480Z,3.08
2023-05-19T21:29:54.394Z,7.00
2023-05-19T21:32:22.117Z,4.85
2023-05-19T21:34:48.617Z,4.78
2023-05-19T21:37:17.174Z,5.57
2023-05-19T21:39:43.936Z,4.90
2023-05-19T21:42:10.439Z,5.45
2023-05-19T21:44:36.948Z,3.40
2023-05-19T21:47:03.396Z,4.65
2023-05-19T21:49:29.814Z,4.43
2023-05-19T21:51:56.220Z,4.82
2023-05-19T21:54:22.675Z,3.95
2023-05-19T21:56:49.109Z,2.38
2023-05-19T21:59:15.750Z,3.95
2023-05-19T22:01:42.269Z,3.95
2023-05-19T22:04:09.341Z,6.90
2023-05-19T22:06:35.995Z,5.15
2023-05-19T22:09:02.616Z,3.97
2023-05-19T22:11:28.995Z,3.75
2023-05-19T22:13:55.578Z,6.78
2023-05-19T22:16:22.164Z,3.30
2023-05-19T22:18:48.641Z,4.60
2023-05-19T22:21:15.055Z,5.32
2023-05-19T22:23:41.455Z,2.90
2023-05-19T22:26:07.855Z,4.15
2023-05-19T22:28:34.361Z,4.13
2023-05-19T22:31:00.781Z,2.80
2023-05-19T22:33:27.242Z,4.43
2023-05-19T22:35:53.897Z,4.18
2023-05-19T22:38:20.496Z,2.88
2023-05-19T22:40:46.975Z,4.15
2023-05-19T22:43:13.410Z,3.80
2023-05-19T22:45:39.978Z,3.67
2023-05-19T22:48:06.610Z,4.35
2023-05-19T22:50:33.064Z,4.07
2023-05-19T22:52:59.470Z,3.78
2023-05-19T22:55:25.863Z,3.25
2023-05-19T22:57:52.248Z,3.00
2023-05-19T23:00:20.644Z,3.67
2023-05-19T23:02:47.308Z,4.07
2023-05-19T23:05:13.703Z,3.35
2023-05-19T23:07:40.349Z,5.03
2023-05-19T23:10:07.639Z,5.10
2023-05-19T23:12:34.312Z,2.72
2023-05-19T23:15:01.164Z,4.32
2023-05-19T23:17:27.699Z,3.13
2023-05-19T23:19:54.175Z,2.75
2023-05-19T23:22:20.595Z,4.22
2023-05-19T23:24:47.067Z,3.10
2023-05-19T23:27:13.445Z,3.60
2023-05-19T23:29:39.804Z,4.63
2023-05-19T23:32:06.526Z,3.85
2023-05-19T23:34:32.901Z,4.00
2023-05-19T23:36:59.326Z,3.00
2023-05-19T23:39:25.902Z,4.65
2023-05-19T23:41:52.335Z,4.28
2023-05-19T23:44:18.892Z,2.53
2023-05-19T23:46:45.354Z,3.80
2023-05-19T23:49:11.772Z,4.43
2023-05-19T23:51:38.200Z,3.58
2023-05-19T23:54:04.601Z,2.80
2023-05-19T23:56:31.062Z,5.38
2023-05-19T23:58:57.477Z,2.17
